Time;durP1;ratioP1;P1;durP2;ratioP2;P2;SDS_P1;SDS_P2;PMS_P1;PMS_P2;Temp;Humidity;BMP_temperature;BMP_pressure;BME280_temperature;BME280_humidity;BME280_pressure;Samples;Min_cycle;Max_cycle;Signal;HPM_P1;HPM_P2
2022/02/16 00:00:48;;;;;;;3.30;3.00;;;;;;;;;;5019288;28;20044;-62
2022/02/16 00:03:13;;;;;;;4.00;3.70;;;;;;;;;;5023467;28;20463;-61
2022/02/16 00:05:39;;;;;;;5.22;3.92;;;;;;;;;;5023022;28;20055;-62
2022/02/16 00:08:04;;;;;;;3.70;3.40;;;;;;;;;;5021851;28;20565;-62
2022/02/16 00:10:30;;;;;;;4.03;3.72;;;;;;;;;;5022627;28;20141;-61
2022/02/16 00:12:55;;;;;;;3.58;3.28;;;;;;;;;;5020206;28;20033;-61
2022/02/16 00:15:23;;;;;;;3.53;3.20;;;;;;;;;;5021829;28;20446;-61
2022/02/16 00:17:51;;;;;;;3.70;3.40;;;;;;;;;;5018626;28;20379;-61
2022/02/16 00:20:17;;;;;;;12.30;4.43;;;;;;;;;;5024523;28;20057;-61
2022/02/16 00:22:44;;;;;;;5.82;3.33;;;;;;;;;;5018321;28;20476;-61
2022/02/16 00:25:09;;;;;;;3.65;3.17;;;;;;;;;;5021406;28;20061;-61
2022/02/16 00:27:35;;;;;;;3.65;3.22;;;;;;;;;;5019373;28;20060;-61
2022/02/16 00:30:01;;;;;;;3.85;3.55;;;;;;;;;;5019726;28;20026;-61
2022/02/16 00:32:26;;;;;;;3.55;3.25;;;;;;;;;;5019479;28;20067;-61
2022/02/16 00:34:52;;;;;;;3.58;3.28;;;;;;;;;;5018863;28;20065;-61
2022/02/16 00:37:17;;;;;;;7.63;3.80;;;;;;;;;;5016591;28;20105;-61
2022/02/16 00:39:42;;;;;;;3.38;3.08;;;;;;;;;;5020832;28;20049;-61
2022/02/16 00:42:08;;;;;;;3.78;3.42;;;;;;;;;;5020221;28;20037;-61
2022/02/16 00:44:33;;;;;;;3.67;3.15;;;;;;;;;;5022968;28;20612;-61
2022/02/16 00:46:59;;;;;;;3.90;3.60;;;;;;;;;;5018658;28;20042;-61
2022/02/16 00:49:24;;;;;;;4.03;3.42;;;;;;;;;;5019822;28;20090;-61
2022/02/16 00:51:49;;;;;;;3.95;3.55;;;;;;;;;;5021329;28;20151;-61
2022/02/16 00:54:15;;;;;;;3.47;3.17;;;;;;;;;;5019139;28;20037;-61
2022/02/16 00:56:40;;;;;;;3.60;3.30;;;;;;;;;;5019107;28;20056;-60
2022/02/16 00:59:06;;;;;;;3.60;3.25;;;;;;;;;;5018189;28;20033;-60
2022/02/16 01:01:31;;;;;;;3.67;3.38;;;;;;;;;;5018752;28;20041;-60
2022/02/16 01:03:57;;;;;;;11.70;3.55;;;;;;;;;;5019885;28;20034;-60
2022/02/16 01:06:22;;;;;;;6.65;4.30;;;;;;;;;;5020494;28;20045;-60
2022/02/16 01:08:48;;;;;;;3.60;3.30;;;;;;;;;;5019843;28;20463;-59
2022/02/16 01:11:14;;;;;;;3.42;3.13;;;;;;;;;;5017799;28;20082;-60
2022/02/16 01:13:39;;;;;;;3.22;2.92;;;;;;;;;;5019068;28;20037;-59
2022/02/16 01:16:05;;;;;;;4.30;3.90;;;;;;;;;;5017741;28;20064;-59
2022/02/16 01:18:32;;;;;;;9.80;4.22;;;;;;;;;;5018142;28;20033;-61
2022/02/16 01:20:57;;;;;;;3.83;3.53;;;;;;;;;;5019000;28;20080;-61
2022/02/16 01:23:23;;;;;;;5.15;3.83;;;;;;;;;;5021222;28;20026;-59
2022/02/16 01:25:48;;;;;;;3.85;3.55;;;;;;;;;;5018021;28;20037;-59
2022/02/16 01:28:14;;;;;;;4.68;4.28;;;;;;;;;;5022213;28;20430;-59
2022/02/16 01:30:39;;;;;;;4.55;4.15;;;;;;;;;;5020101;28;20030;-59
2022/02/16 01:33:04;;;;;;;3.75;3.45;;;;;;;;;;5009042;28;20470;-61
2022/02/16 01:35:30;;;;;;;4.30;3.90;;;;;;;;;;5018087;28;20099;-61
2022/02/16 01:37:56;;;;;;;4.85;3.72;;;;;;;;;;5018232;28;20030;-60
2022/02/16 01:40:21;;;;;;;3.72;3.42;;;;;;;;;;5016926;28;20605;-61
2022/02/16 01:42:46;;;;;;;3.78;3.47;;;;;;;;;;5018979;28;20071;-61
2022/02/16 01:45:12;;;;;;;3.75;3.40;;;;;;;;;;5019957;28;20129;-61
2022/02/16 01:47:38;;;;;;;3.67;3.38;;;;;;;;;;5020609;28;20422;-61
2022/02/16 01:50:05;;;;;;;3.85;3.10;;;;;;;;;;5018710;28;20034;-61
2022/02/16 01:52:30;;;;;;;3.53;3.22;;;;;;;;;;5018111;28;20029;-61
2022/02/16 01:54:56;;;;;;;3.45;3.15;;;;;;;;;;5020347;28;20431;-61
2022/02/16 01:57:22;;;;;;;4.30;3.90;;;;;;;;;;5017905;28;20038;-61
2022/02/16 01:59:48;;;;;;;3.83;3.53;;;;;;;;;;5019722;28;20044;-61
2022/02/16 02:02:14;;;;;;;3.50;3.20;;;;;;;;;;5019707;28;20427;-61
2022/02/16 02:04:39;;;;;;;3.92;3.53;;;;;;;;;;5019997;28;20038;-61
2022/02/16 02:07:04;;;;;;;4.43;4.03;;;;;;;;;;5020319;28;20104;-61
2022/02/16 02:09:30;;;;;;;4.82;4.43;;;;;;;;;;5018601;28;20352;-60
2022/02/16 02:11:55;;;;;;;3.60;3.30;;;;;;;;;;5018530;28;20594;-61
2022/02/16 02:14:20;;;;;;;3.47;3.17;;;;;;;;;;5018954;28;20095;-61
2022/02/16 02:16:46;;;;;;;3.88;3.58;;;;;;;;;;5019488;28;20033;-60
2022/02/16 02:19:11;;;;;;;3.55;3.25;;;;;;;;;;5018525;28;20026;-60
2022/02/16 02:21:37;;;;;;;4.63;4.13;;;;;;;;;;5017640;28;20052;-61
2022/02/16 02:24:04;;;;;;;3.63;3.33;;;;;;;;;;5018722;28;20025;-60
2022/02/16 02:26:29;;;;;;;4.57;4.18;;;;;;;;;;5018225;28;20425;-61
2022/02/16 02:28:55;;;;;;;3.45;3.15;;;;;;;;;;5021262;28;20025;-60
2022/02/16 02:31:31;;;;;;;3.90;3.60;;;;;;;;;;5019843;28;20062;-60
2022/02/16 02:33:58;;;;;;;4.00;3.60;;;;;;;;;;5018364;28;20037;-61
2022/02/16 02:36:23;;;;;;;3.80;3.50;;;;;;;;;;5020054;28;20060;-60
2022/02/16 02:38:49;;;;;;;3.80;3.50;;;;;;;;;;5019194;28;20037;-60
2022/02/16 02:41:14;;;;;;;5.05;3.85;;;;;;;;;;5018813;28;20078;-60
2022/02/16 02:43:43;;;;;;;7.43;3.63;;;;;;;;;;5018993;28;20041;-60
2022/02/16 02:46:08;;;;;;;4.80;3.72;;;;;;;;;;5020294;28;20033;-61
2022/02/16 02:48:33;;;;;;;4.05;3.65;;;;;;;;;;5012619;28;20091;-61
2022/02/16 02:50:59;;;;;;;3.55;3.25;;;;;;;;;;5019394;28;20041;-60
2022/02/16 02:53:24;;;;;;;3.63;3.33;;;;;;;;;;5024030;28;20033;-60
2022/02/16 02:55:50;;;;;;;3.50;3.20;;;;;;;;;;5018845;28;20040;-60
2022/02/16 02:58:15;;;;;;;4.20;3.80;;;;;;;;;;5021088;28;20030;-61
2022/02/16 03:00:40;;;;;;;4.30;3.90;;;;;;;;;;5015815;28;20033;-60
2022/02/16 03:03:06;;;;;;;4.47;4.07;;;;;;;;;;5018143;28;20099;-60
2022/02/16 03:05:32;;;;;;;3.63;3.33;;;;;;;;;;5015035;28;20455;-60
2022/02/16 03:07:57;;;;;;;3.90;3.50;;;;;;;;;;5021252;28;20025;-60
2022/02/16 03:10:23;;;;;;;3.47;3.17;;;;;;;;;;5018692;28;20034;-60
2022/02/16 03:12:48;;;;;;;5.05;4.10;;;;;;;;;;5018162;28;20044;-59
2022/02/16 03:15:14;;;;;;;3.40;3.10;;;;;;;;;;5017047;28;20410;-60
2022/02/16 03:17:39;;;;;;;4.25;3.85;;;;;;;;;;5016618;28;20451;-60
2022/02/16 03:20:06;;;;;;;4.45;4.05;;;;;;;;;;5015377;28;20099;-59
2022/02/16 03:22:33;;;;;;;3.95;3.65;;;;;;;;;;5017937;28;20046;-59
2022/02/16 03:24:59;;;;;;;4.03;3.70;;;;;;;;;;5015968;28;20041;-60
2022/02/16 03:27:25;;;;;;;4.22;3.83;;;;;;;;;;5019034;28;20053;-60
2022/02/16 03:29:51;;;;;;;4.30;3.90;;;;;;;;;;5018515;28;20466;-60
2022/02/16 03:32:16;;;;;;;9.02;4.38;;;;;;;;;;5018327;28;20117;-60
2022/02/16 03:34:41;;;;;;;4.18;3.78;;;;;;;;;;5017027;28;20042;-60
2022/02/16 03:37:08;;;;;;;3.50;3.20;;;;;;;;;;5018300;28;20026;-59
2022/02/16 03:39:34;;;;;;;4.40;3.97;;;;;;;;;;5014645;28;20033;-59
2022/02/16 03:42:00;;;;;;;4.57;4.20;;;;;;;;;;5020683;28;20117;-59
2022/02/16 03:44:25;;;;;;;4.03;3.72;;;;;;;;;;5020016;28;20038;-60
2022/02/16 03:46:51;;;;;;;4.40;4.10;;;;;;;;;;5021334;28;20083;-60
2022/02/16 03:49:17;;;;;;;16.90;4.47;;;;;;;;;;5018422;28;20611;-60
2022/02/16 03:51:43;;;;;;;3.80;3.50;;;;;;;;;;5021488;28;20056;-60
2022/02/16 03:54:08;;;;;;;4.40;4.00;;;;;;;;;;5019835;28;20037;-59
2022/02/16 03:56:33;;;;;;;3.85;3.45;;;;;;;;;;5018607;28;20037;-60
2022/02/16 03:58:59;;;;;;;3.85;3.55;;;;;;;;;;5020058;28;20041;-60
2022/02/16 04:01:24;;;;;;;4.15;3.75;;;;;;;;;;5020706;28;20052;-60
2022/02/16 04:03:50;;;;;;;4.25;3.85;;;;;;;;;;5023279;28;20592;-60
2022/02/16 04:06:17;;;;;;;4.40;4.03;;;;;;;;;;5021720;28;20171;-60
2022/02/16 04:08:43;;;;;;;4.68;4.28;;;;;;;;;;5020110;28;20066;-60
2022/02/16 04:11:08;;;;;;;4.22;3.83;;;;;;;;;;5020825;28;20025;-61
2022/02/16 04:13:34;;;;;;;4.43;3.63;;;;;;;;;;5022572;28;20038;-61
2022/02/16 04:15:59;;;;;;;4.35;4.00;;;;;;;;;;5020679;28;20045;-62
2022/02/16 04:18:24;;;;;;;4.65;4.25;;;;;;;;;;5020947;28;20156;-61
2022/02/16 04:20:50;;;;;;;3.88;3.45;;;;;;;;;;5022548;28;20477;-61
2022/02/16 04:23:16;;;;;;;3.92;3.63;;;;;;;;;;5020343;28;20371;-61
2022/02/16 04:25:41;;;;;;;4.10;3.70;;;;;;;;;;5020992;28;20110;-61
2022/02/16 04:28:07;;;;;;;3.40;3.10;;;;;;;;;;5022666;28;20037;-62
2022/02/16 04:30:32;;;;;;;3.72;3.42;;;;;;;;;;5020200;28;20034;-62
2022/02/16 04:32:58;;;;;;;4.15;3.85;;;;;;;;;;5020754;28;20385;-63
2022/02/16 04:35:24;;;;;;;4.93;4.53;;;;;;;;;;5020228;28;20379;-63
2022/02/16 04:37:50;;;;;;;4.57;4.18;;;;;;;;;;5020616;28;20026;-64
2022/02/16 04:40:16;;;;;;;4.00;3.70;;;;;;;;;;5018705;28;20033;-64
2022/02/16 04:42:42;;;;;;;8.00;4.07;;;;;;;;;;5018250;28;20038;-64
2022/02/16 04:45:08;;;;;;;3.72;3.42;;;;;;;;;;5021634;28;20039;-64
2022/02/16 04:47:34;;;;;;;4.70;4.30;;;;;;;;;;5020714;28;20038;-64
2022/02/16 04:49:59;;;;;;;4.57;4.18;;;;;;;;;;5020730;28;20385;-64
2022/02/16 04:52:34;;;;;;;4.03;3.70;;;;;;;;;;5023142;28;20682;-64
2022/02/16 04:55:09;;;;;;;3.78;3.47;;;;;;;;;;5019101;28;20025;-64
2022/02/16 04:57:36;;;;;;;4.05;3.75;;;;;;;;;;5020202;28;20085;-63
2022/02/16 05:00:05;;;;;;;3.90;3.60;;;;;;;;;;5023415;28;20049;-63
2022/02/16 05:02:31;;;;;;;3.60;3.30;;;;;;;;;;5020572;28;20041;-63
2022/02/16 05:04:56;;;;;;;9.10;3.88;;;;;;;;;;5019200;28;20125;-63
2022/02/16 05:07:22;;;;;;;4.30;3.90;;;;;;;;;;5022640;28;20368;-62
2022/02/16 05:09:48;;;;;;;4.40;4.00;;;;;;;;;;5017722;28;20123;-63
2022/02/16 05:12:14;;;;;;;4.47;4.07;;;;;;;;;;5018023;28;20440;-62
2022/02/16 05:14:40;;;;;;;3.58;3.28;;;;;;;;;;5016652;28;20538;-63
2022/02/16 05:17:05;;;;;;;4.18;3.78;;;;;;;;;;5020015;28;20161;-64
2022/02/16 05:19:31;;;;;;;3.78;3.35;;;;;;;;;;5016680;28;20037;-62
2022/02/16 05:21:56;;;;;;;4.18;3.88;;;;;;;;;;5019647;28;20431;-62
2022/02/16 05:24:22;;;;;;;4.10;3.72;;;;;;;;;;5018194;28;20026;-64
2022/02/16 05:26:47;;;;;;;4.00;3.67;;;;;;;;;;5019775;28;20053;-64
2022/02/16 05:29:13;;;;;;;4.03;3.63;;;;;;;;;;5018116;28;20468;-62
2022/02/16 05:31:38;;;;;;;4.20;3.90;;;;;;;;;;5019482;28;20113;-64
2022/02/16 05:34:04;;;;;;;5.32;3.78;;;;;;;;;;5021624;28;20057;-63
2022/02/16 05:36:29;;;;;;;3.75;3.45;;;;;;;;;;5022209;28;20033;-64
2022/02/16 05:38:55;;;;;;;4.32;3.95;;;;;;;;;;5019737;28;20029;-64
2022/02/16 05:41:20;;;;;;;3.72;3.42;;;;;;;;;;5020507;28;20038;-64
2022/02/16 05:43:46;;;;;;;3.97;3.67;;;;;;;;;;5019321;28;20046;-64
2022/02/16 05:46:11;;;;;;;3.67;3.38;;;;;;;;;;5020821;28;20053;-63
2022/02/16 05:48:36;;;;;;;4.05;3.75;;;;;;;;;;5021541;28;20608;-64
2022/02/16 05:51:03;;;;;;;4.03;3.72;;;;;;;;;;5016785;28;20467;-64
2022/02/16 05:53:28;;;;;;;4.05;3.75;;;;;;;;;;5017639;28;20042;-64
2022/02/16 05:55:54;;;;;;;4.50;4.10;;;;;;;;;;5018367;28;20029;-64
2022/02/16 05:58:19;;;;;;;5.63;3.75;;;;;;;;;;5019458;28;20048;-61
2022/02/16 06:00:44;;;;;;;3.67;3.38;;;;;;;;;;5020198;28;20033;-61
2022/02/16 06:03:10;;;;;;;4.35;3.95;;;;;;;;;;5018625;28;20553;-61
2022/02/16 06:05:35;;;;;;;4.25;3.95;;;;;;;;;;5020905;28;20352;-59
2022/02/16 06:08:00;;;;;;;4.03;3.65;;;;;;;;;;5017959;28;20462;-61
2022/02/16 06:10:26;;;;;;;4.50;4.10;;;;;;;;;;5020838;28;20045;-61
2022/02/16 06:12:51;;;;;;;3.83;3.53;;;;;;;;;;5019977;28;20025;-60
2022/02/16 06:15:17;;;;;;;3.83;3.53;;;;;;;;;;5021548;28;20474;-60
2022/02/16 06:17:42;;;;;;;3.97;3.67;;;;;;;;;;5018658;28;20038;-60
2022/02/16 06:20:08;;;;;;;3.75;3.45;;;;;;;;;;5019067;28;20044;-60
2022/02/16 06:22:34;;;;;;;3.80;3.50;;;;;;;;;;5020211;28;20029;-60
2022/02/16 06:24:59;;;;;;;6.95;3.95;;;;;;;;;;5018937;28;20836;-60
2022/02/16 06:27:24;;;;;;;3.95;3.58;;;;;;;;;;5020969;28;20044;-60
2022/02/16 06:29:50;;;;;;;4.47;4.07;;;;;;;;;;5019530;28;20022;-60
2022/02/16 06:32:15;;;;;;;4.15;3.85;;;;;;;;;;5018669;28;20345;-61
2022/02/16 06:34:41;;;;;;;3.67;3.38;;;;;;;;;;5018705;28;20025;-61
2022/02/16 06:37:06;;;;;;;4.72;4.32;;;;;;;;;;5015989;28;20609;-61
2022/02/16 06:39:31;;;;;;;3.60;3.30;;;;;;;;;;5014634;28;20044;-61
2022/02/16 06:41:57;;;;;;;4.70;4.30;;;;;;;;;;5019427;28;20037;-61
2022/02/16 06:44:22;;;;;;;4.18;3.88;;;;;;;;;;5017299;28;20038;-60
2022/02/16 06:46:48;;;;;;;4.03;3.65;;;;;;;;;;5020517;28;20025;-60
2022/02/16 06:49:14;;;;;;;4.00;3.70;;;;;;;;;;5018941;28;20095;-61
2022/02/16 06:51:42;;;;;;;3.85;3.55;;;;;;;;;;5016870;28;20137;-65
2022/02/16 06:54:07;;;;;;;4.13;3.83;;;;;;;;;;5016932;28;20048;-65
2022/02/16 06:56:32;;;;;;;4.05;3.75;;;;;;;;;;5016101;28;20033;-65
2022/02/16 06:58:58;;;;;;;4.55;4.15;;;;;;;;;;5015406;28;20129;-65
2022/02/16 07:01:23;;;;;;;3.60;3.30;;;;;;;;;;5017657;28;20025;-65
2022/02/16 07:03:49;;;;;;;4.07;3.78;;;;;;;;;;5018841;28;20382;-66
2022/02/16 07:06:14;;;;;;;4.50;3.58;;;;;;;;;;5018714;28;20088;-66
2022/02/16 07:08:39;;;;;;;4.07;3.78;;;;;;;;;;5012210;28;20038;-65
2022/02/16 07:11:05;;;;;;;3.72;3.42;;;;;;;;;;5015261;28;20084;-65
2022/02/16 07:13:30;;;;;;;4.45;4.05;;;;;;;;;;5017743;28;20052;-66
2022/02/16 07:15:55;;;;;;;4.53;4.13;;;;;;;;;;5016499;28;20056;-64
2022/02/16 07:18:21;;;;;;;4.45;4.05;;;;;;;;;;5015636;28;20122;-63
2022/02/16 07:20:46;;;;;;;4.10;3.80;;;;;;;;;;5017630;28;20033;-62
2022/02/16 07:23:12;;;;;;;4.30;3.90;;;;;;;;;;5019013;28;20057;-64
2022/02/16 07:25:37;;;;;;;4.15;3.75;;;;;;;;;;5020802;28;20041;-64
2022/02/16 07:28:04;;;;;;;4.63;4.22;;;;;;;;;;5021406;28;20420;-64
2022/02/16 07:30:30;;;;;;;4.15;3.85;;;;;;;;;;5017480;28;20057;-64
2022/02/16 07:32:56;;;;;;;3.83;3.53;;;;;;;;;;5022620;28;20053;-64
2022/02/16 07:35:21;;;;;;;3.95;3.65;;;;;;;;;;5019923;28;20030;-63
2022/02/16 07:37:47;;;;;;;4.75;4.35;;;;;;;;;;5023612;28;20124;-64
2022/02/16 07:40:12;;;;;;;3.97;3.67;;;;;;;;;;5022827;28;20029;-64
2022/02/16 07:42:38;;;;;;;5.20;4.80;;;;;;;;;;5019370;28;20125;-64
2022/02/16 07:45:06;;;;;;;4.72;4.32;;;;;;;;;;5024659;28;20116;-64
2022/02/16 07:47:32;;;;;;;4.13;3.83;;;;;;;;;;5022536;28;20038;-64
2022/02/16 07:49:57;;;;;;;4.13;3.83;;;;;;;;;;5019831;28;20033;-64
2022/02/16 07:52:23;;;;;;;4.93;4.53;;;;;;;;;;5019206;28;20038;-64
2022/02/16 07:54:48;;;;;;;4.72;4.32;;;;;;;;;;5022037;28;20168;-64
2022/02/16 07:57:13;;;;;;;4.40;4.05;;;;;;;;;;5022995;28;20443;-64
2022/02/16 07:59:39;;;;;;;4.25;3.92;;;;;;;;;;5025884;28;20025;-64
2022/02/16 08:02:05;;;;;;;3.95;3.65;;;;;;;;;;5026645;28;20111;-64
2022/02/16 08:04:30;;;;;;;5.88;4.53;;;;;;;;;;5021369;28;20452;-64
2022/02/16 08:06:56;;;;;;;4.18;3.88;;;;;;;;;;5022709;28;20030;-65
2022/02/16 08:09:21;;;;;;;3.85;3.55;;;;;;;;;;5019296;28;20091;-64
2022/02/16 08:11:47;;;;;;;4.70;4.30;;;;;;;;;;5021046;28;20087;-64
2022/02/16 08:14:13;;;;;;;3.67;3.38;;;;;;;;;;5020771;28;20075;-64
2022/02/16 08:16:39;;;;;;;4.53;4.15;;;;;;;;;;5022772;28;20038;-64
2022/02/16 08:19:08;;;;;;;5.15;4.25;;;;;;;;;;5022573;28;20529;-64
2022/02/16 08:21:35;;;;;;;3.85;3.55;;;;;;;;;;5021215;28;20029;-64
2022/02/16 08:24:00;;;;;;;5.30;4.53;;;;;;;;;;5021562;28;20037;-64
2022/02/16 08:26:26;;;;;;;3.85;3.55;;;;;;;;;;5021624;28;20392;-64
2022/02/16 08:28:51;;;;;;;3.97;3.67;;;;;;;;;;5023251;28;20344;-65
2022/02/16 08:31:16;;;;;;;3.88;3.58;;;;;;;;;;5022130;28;20060;-64
2022/02/16 08:33:42;;;;;;;4.82;4.43;;;;;;;;;;5018902;28;20038;-64
2022/02/16 08:36:08;;;;;;;3.60;3.30;;;;;;;;;;5017437;28;20034;-64
2022/02/16 08:38:34;;;;;;;4.00;3.70;;;;;;;;;;5018608;28;20061;-65
2022/02/16 08:40:59;;;;;;;3.97;3.67;;;;;;;;;;5014997;28;20506;-64
2022/02/16 08:43:28;;;;;;;3.90;3.60;;;;;;;;;;5019931;28;20108;-64
2022/02/16 08:45:54;;;;;;;3.80;3.50;;;;;;;;;;5018570;28;20426;-64
2022/02/16 08:48:23;;;;;;;4.22;3.83;;;;;;;;;;5018178;28;20045;-65
2022/02/16 08:50:49;;;;;;;3.80;3.50;;;;;;;;;;5018708;28;20025;-64
2022/02/16 08:53:15;;;;;;;4.40;4.00;;;;;;;;;;5016574;28;20030;-64
2022/02/16 08:55:40;;;;;;;3.80;3.45;;;;;;;;;;5016899;28;20045;-65
2022/02/16 08:58:05;;;;;;;4.10;3.80;;;;;;;;;;5015873;28;20525;-60
2022/02/16 09:00:31;;;;;;;3.80;3.50;;;;;;;;;;5019729;28;20125;-60
2022/02/16 09:02:56;;;;;;;3.65;3.35;;;;;;;;;;5020232;28;20038;-59
2022/02/16 09:05:22;;;;;;;4.05;3.75;;;;;;;;;;5017672;28;20033;-60
2022/02/16 09:07:47;;;;;;;4.10;3.70;;;;;;;;;;5018706;28;20108;-60
2022/02/16 09:10:12;;;;;;;3.88;3.58;;;;;;;;;;5019319;28;20120;-60
2022/02/16 09:12:38;;;;;;;3.80;3.50;;;;;;;;;;5018183;28;20113;-60
2022/02/16 09:15:05;;;;;;;4.25;3.85;;;;;;;;;;5019519;28;20036;-60
2022/02/16 09:17:31;;;;;;;5.20;3.85;;;;;;;;;;5017373;28;20037;-60
2022/02/16 09:19:57;;;;;;;3.92;3.63;;;;;;;;;;5019099;28;20060;-59
2022/02/16 09:22:24;;;;;;;3.50;3.20;;;;;;;;;;5015995;28;20026;-59
2022/02/16 09:24:50;;;;;;;3.42;3.13;;;;;;;;;;5018976;28;20029;-60
2022/02/16 09:27:16;;;;;;;3.90;3.60;;;;;;;;;;5017562;28;20454;-60
2022/02/16 09:29:42;;;;;;;3.42;3.13;;;;;;;;;;5018504;28;20030;-59
2022/02/16 09:32:08;;;;;;;3.80;3.47;;;;;;;;;;5018679;28;20108;-59
2022/02/16 09:34:34;;;;;;;3.60;3.30;;;;;;;;;;5019239;28;20037;-60
2022/02/16 09:36:59;;;;;;;4.22;3.83;;;;;;;;;;5017791;28;20064;-60
2022/02/16 09:39:25;;;;;;;4.07;3.78;;;;;;;;;;5021706;28;20115;-60
2022/02/16 09:41:50;;;;;;;3.85;3.55;;;;;;;;;;5020001;28;20485;-60
2022/02/16 09:44:26;;;;;;;4.20;3.90;;;;;;;;;;5020637;28;20261;-60
2022/02/16 09:46:52;;;;;;;3.88;3.58;;;;;;;;;;5018467;28;20505;-59
2022/02/16 09:49:17;;;;;;;4.45;4.07;;;;;;;;;;5020049;28;20029;-60
2022/02/16 09:51:43;;;;;;;4.10;3.80;;;;;;;;;;5018553;28;20048;-60
2022/02/16 09:54:08;;;;;;;3.85;3.55;;;;;;;;;;5022303;28;20482;-59
2022/02/16 09:56:34;;;;;;;4.03;3.72;;;;;;;;;;5017935;28;20079;-59
2022/02/16 09:59:01;;;;;;;4.10;3.80;;;;;;;;;;5020103;28;20108;-59
2022/02/16 10:01:26;;;;;;;4.90;4.03;;;;;;;;;;5019787;28;20044;-59
2022/02/16 10:04:09;;;;;;;3.60;3.30;;;;;;;;;;5019314;28;20037;-59
2022/02/16 10:06:37;;;;;;;4.07;3.78;;;;;;;;;;5019935;28;20080;-59
2022/02/16 10:09:04;;;;;;;6.05;4.40;;;;;;;;;;5016649;28;20037;-59
2022/02/16 10:11:29;;;;;;;4.28;3.97;;;;;;;;;;5019602;28;20038;-59
2022/02/16 10:14:15;;;;;;;4.70;4.25;;;;;;;;;;5021974;28;20033;-60
2022/02/16 10:16:40;;;;;;;4.10;3.80;;;;;;;;;;5018918;28;20029;-60
2022/02/16 10:19:06;;;;;;;4.22;3.90;;;;;;;;;;5017028;28;20374;-60
2022/02/16 10:21:31;;;;;;;4.03;3.72;;;;;;;;;;5018143;28;20041;-60
2022/02/16 10:23:57;;;;;;;4.32;4.00;;;;;;;;;;5015782;28;20038;-60
2022/02/16 10:26:49;;;;;;;3.88;3.55;;;;;;;;;;5016401;28;20460;-60
2022/02/16 10:29:22;;;;;;;4.30;4.00;;;;;;;;;;5012462;28;20475;-59
2022/02/16 10:31:47;;;;;;;4.10;3.78;;;;;;;;;;5018469;28;20034;-59
2022/02/16 10:34:13;;;;;;;6.78;4.10;;;;;;;;;;5018811;28;20034;-59
2022/02/16 10:36:39;;;;;;;3.85;3.55;;;;;;;;;;5017565;28;20379;-61
2022/02/16 10:39:07;;;;;;;4.20;3.90;;;;;;;;;;5018929;28;20044;-59
2022/02/16 10:41:41;;;;;;;4.55;4.15;;;;;;;;;;5019671;28;20049;-60
2022/02/16 10:44:16;;;;;;;4.32;3.92;;;;;;;;;;5017908;28;20048;-60
2022/02/16 10:46:42;;;;;;;4.93;4.53;;;;;;;;;;5016124;28;20057;-60
2022/02/16 10:49:16;;;;;;;4.15;3.80;;;;;;;;;;5018451;28;20464;-60
2022/02/16 10:51:44;;;;;;;4.82;4.43;;;;;;;;;;5020217;28;20130;-60
2022/02/16 10:54:13;;;;;;;4.47;4.07;;;;;;;;;;5018412;28;20127;-60
2022/02/16 10:56:41;;;;;;;3.75;3.45;;;;;;;;;;5013446;28;20069;-60
2022/02/16 10:59:06;;;;;;;4.15;3.83;;;;;;;;;;5022598;28;20048;-60
2022/02/16 11:01:34;;;;;;;3.80;3.50;;;;;;;;;;5021472;28;20052;-60
2022/02/16 11:04:03;;;;;;;5.00;4.60;;;;;;;;;;5019995;28;20133;-60
2022/02/16 11:06:29;;;;;;;4.13;3.83;;;;;;;;;;5019504;28;20903;-60
2022/02/16 11:08:56;;;;;;;3.97;3.67;;;;;;;;;;5020286;28;20033;-60
2022/02/16 11:11:22;;;;;;;4.38;4.00;;;;;;;;;;5021532;28;20045;-60
2022/02/16 11:13:48;;;;;;;4.28;3.88;;;;;;;;;;5022466;28;20379;-60
2022/02/16 11:16:13;;;;;;;3.90;3.60;;;;;;;;;;5022974;28;20048;-60
2022/02/16 11:18:47;;;;;;;4.97;4.57;;;;;;;;;;5021694;28;20041;-60
2022/02/16 11:21:22;;;;;;;4.10;3.80;;;;;;;;;;5020911;28;20029;-60
2022/02/16 11:23:55;;;;;;;3.95;3.65;;;;;;;;;;5022217;28;20096;-60
2022/02/16 11:26:37;;;;;;;3.97;3.67;;;;;;;;;;5023960;28;20052;-60
2022/02/16 11:29:25;;;;;;;4.32;3.92;;;;;;;;;;5020859;28;20570;-60
2022/02/16 11:32:04;;;;;;;4.03;3.72;;;;;;;;;;5025414;28;20116;-60
2022/02/16 11:34:29;;;;;;;4.63;4.22;;;;;;;;;;5022763;28;20128;-60
2022/02/16 11:37:02;;;;;;;4.53;4.13;;;;;;;;;;5021640;28;20208;-60
2022/02/16 11:39:59;;;;;;;5.10;4.70;;;;;;;;;;5017534;28;20041;-60
2022/02/16 11:42:46;;;;;;;4.53;4.13;;;;;;;;;;5019041;28;20062;-60
2022/02/16 11:45:13;;;;;;;4.53;4.10;;;;;;;;;;5020474;28;20045;-60
2022/02/16 11:47:41;;;;;;;4.50;4.10;;;;;;;;;;5019607;28;20136;-60
2022/02/16 11:50:13;;;;;;;4.18;3.88;;;;;;;;;;5022082;28;20076;-62
2022/02/16 11:52:40;;;;;;;3.72;3.42;;;;;;;;;;5021985;28;20033;-60
2022/02/16 11:55:22;;;;;;;4.32;3.92;;;;;;;;;;5020540;28;20042;-60
2022/02/16 11:58:01;;;;;;;4.13;3.83;;;;;;;;;;5021022;28;20394;-60
2022/02/16 12:00:34;;;;;;;4.13;3.83;;;;;;;;;;5022259;28;20137;-60
2022/02/16 12:03:05;;;;;;;4.35;4.05;;;;;;;;;;5020887;28;20136;-60
2022/02/16 12:05:45;;;;;;;4.00;3.70;;;;;;;;;;5020174;28;20120;-60
2022/02/16 12:08:12;;;;;;;4.63;4.22;;;;;;;;;;5018864;28;20049;-60
2022/02/16 12:10:43;;;;;;;3.80;3.50;;;;;;;;;;5016534;28;20025;-61
2022/02/16 12:13:09;;;;;;;4.30;4.00;;;;;;;;;;5020365;28;20111;-60
2022/02/16 12:15:35;;;;;;;4.15;3.75;;;;;;;;;;5019623;28;20033;-60
2022/02/16 12:18:02;;;;;;;4.80;4.25;;;;;;;;;;5019718;28;20081;-60
2022/02/16 12:20:28;;;;;;;4.03;3.72;;;;;;;;;;5022651;28;20033;-60
2022/02/16 12:23:00;;;;;;;3.95;3.65;;;;;;;;;;5020767;28;20037;-64
2022/02/16 12:25:26;;;;;;;4.18;3.85;;;;;;;;;;5020412;28;20037;-64
2022/02/16 12:28:03;;;;;;;4.15;3.85;;;;;;;;;;5017645;28;20033;-63
2022/02/16 12:30:33;;;;;;;5.20;4.28;;;;;;;;;;5018481;28;20112;-61
2022/02/16 12:32:59;;;;;;;3.95;3.65;;;;;;;;;;5010020;28;20052;-60
2022/02/16 12:35:25;;;;;;;3.70;3.40;;;;;;;;;;5024340;28;20030;-60
2022/02/16 12:37:51;;;;;;;4.15;3.85;;;;;;;;;;5019457;28;20037;-60
2022/02/16 12:40:17;;;;;;;4.53;4.15;;;;;;;;;;5020033;28;20049;-61
2022/02/16 12:42:44;;;;;;;4.10;3.80;;;;;;;;;;5019553;28;20029;-60
2022/02/16 12:45:10;;;;;;;4.70;4.30;;;;;;;;;;5021093;28;20038;-60
2022/02/16 12:47:36;;;;;;;4.65;4.25;;;;;;;;;;5019408;28;20034;-60
2022/02/16 12:50:11;;;;;;;4.70;4.30;;;;;;;;;;5020881;28;20041;-64
2022/02/16 12:52:37;;;;;;;4.53;4.13;;;;;;;;;;5018883;28;20042;-65
2022/02/16 12:55:05;;;;;;;4.00;3.70;;;;;;;;;;5017800;28;20028;-64
2022/02/16 12:57:31;;;;;;;4.85;4.45;;;;;;;;;;5014273;28;20438;-64
2022/02/16 13:02:45;;;;;;;4.68;4.28;;;;;;;;;;5018104;28;20034;-64
2022/02/16 13:05:10;;;;;;;3.97;3.67;;;;;;;;;;5016642;28;20048;-64
2022/02/16 13:07:37;;;;;;;4.57;4.20;;;;;;;;;;5017354;28;20045;-64
2022/02/16 13:10:06;;;;;;;4.30;3.95;;;;;;;;;;5016546;28;20536;-64
2022/02/16 13:12:47;;;;;;;4.03;3.72;;;;;;;;;;5015574;28;20042;-64
2022/02/16 13:15:16;;;;;;;4.10;3.80;;;;;;;;;;5015090;28;20072;-60
2022/02/16 13:17:53;;;;;;;4.43;4.10;;;;;;;;;;5017332;28;20037;-60
2022/02/16 13:20:35;;;;;;;4.57;4.18;;;;;;;;;;5012604;28;20037;-60
2022/02/16 13:23:14;;;;;;;4.05;3.75;;;;;;;;;;5017774;28;20057;-60
2022/02/16 13:25:44;;;;;;;5.30;4.90;;;;;;;;;;5013891;28;20046;-60
2022/02/16 13:28:18;;;;;;;4.60;4.20;;;;;;;;;;5015453;28;20049;-59
2022/02/16 13:30:49;;;;;;;4.15;3.85;;;;;;;;;;5017805;28;20140;-60
2022/02/16 13:33:19;;;;;;;;;;;;;;;;;;5015979;28;20037;-60
2022/02/16 13:35:53;;;;;;;4.05;3.75;;;;;;;;;;5017920;28;19928;-60
2022/02/16 13:38:23;;;;;;;4.03;3.72;;;;;;;;;;5015009;28;20503;-60
2022/02/16 13:40:52;;;;;;;3.80;3.50;;;;;;;;;;5013061;28;20183;-60
2022/02/16 13:43:20;;;;;;;3.85;3.55;;;;;;;;;;5012117;28;20038;-59
2022/02/16 13:45:48;;;;;;;4.05;3.75;;;;;;;;;;5016205;28;20112;-60
2022/02/16 13:48:22;;;;;;;3.92;3.63;;;;;;;;;;5013619;28;20049;-59
2022/02/16 13:50:48;;;;;;;3.70;3.40;;;;;;;;;;5011957;28;20041;-60
2022/02/16 13:53:13;;;;;;;4.10;3.80;;;;;;;;;;5014168;28;20387;-60
2022/02/16 13:55:49;;;;;;;4.53;4.13;;;;;;;;;;5018538;28;20045;-61
2022/02/16 13:58:15;;;;;;;3.72;3.42;;;;;;;;;;5012476;28;20624;-63
2022/02/16 14:00:41;;;;;;;3.97;3.67;;;;;;;;;;5017541;28;20128;-60
2022/02/16 14:03:11;;;;;;;3.55;3.25;;;;;;;;;;5012079;28;20152;-64
2022/02/16 14:05:38;;;;;;;3.88;3.58;;;;;;;;;;5015034;28;20029;-58
2022/02/16 14:08:05;;;;;;;3.70;3.40;;;;;;;;;;5017615;28;20617;-61
2022/02/16 14:10:32;;;;;;;3.95;3.65;;;;;;;;;;5015019;28;20049;-61
2022/02/16 14:12:57;;;;;;;3.88;3.58;;;;;;;;;;5015144;28;20053;-61
2022/02/16 14:15:23;;;;;;;4.07;3.78;;;;;;;;;;5017983;28;20148;-60
2022/02/16 14:17:50;;;;;;;3.80;3.50;;;;;;;;;;5014628;28;20033;-58
2022/02/16 14:20:16;;;;;;;3.78;3.47;;;;;;;;;;5016237;28;20052;-58
2022/02/16 14:22:42;;;;;;;4.30;3.90;;;;;;;;;;5019062;28;20608;-58
2022/02/16 14:25:08;;;;;;;3.58;3.28;;;;;;;;;;5014646;28;20040;-58
2022/02/16 14:27:34;;;;;;;4.07;3.78;;;;;;;;;;5012731;28;20117;-58
2022/02/16 14:29:59;;;;;;;3.95;3.65;;;;;;;;;;5015576;28;20041;-58
2022/02/16 14:32:26;;;;;;;3.95;3.65;;;;;;;;;;5012873;28;20029;-58
2022/02/16 14:34:58;;;;;;;3.85;3.55;;;;;;;;;;5016582;28;20025;-58
2022/02/16 14:37:24;;;;;;;4.05;3.75;;;;;;;;;;5018910;28;20060;-60
2022/02/16 14:39:49;;;;;;;3.88;3.58;;;;;;;;;;5014872;28;20060;-60
2022/02/16 14:42:15;;;;;;;3.55;3.25;;;;;;;;;;5016530;28;20493;-60
2022/02/16 14:44:40;;;;;;;3.75;3.45;;;;;;;;;;5017210;28;20467;-59